createdAt,value
2022-10-22T00:02:37.110Z,99805.80
2022-10-22T00:05:20.106Z,99809.60
2022-10-22T00:08:15.618Z,99801.20
2022-10-22T00:10:52.888Z,99793.20
2022-10-22T00:13:52.325Z,99790.40
2022-10-22T00:16:45.805Z,99795.20
2022-10-22T00:19:51.925Z,99792.20
2022-10-22T00:22:47.875Z,99796.60
2022-10-22T00:25:49.682Z,99790.80
2022-10-22T00:28:37.139Z,99788.40
2022-10-22T00:31:35.876Z,99783.60
2022-10-22T00:34:23.327Z,99776.60
2022-10-22T00:40:43.278Z,99765.80
2022-10-22T00:44:00.104Z,99761.20
2022-10-22T00:46:45.708Z,99752.60
2022-10-22T00:49:49.292Z,99754.20
2022-10-22T00:52:40.782Z,99740.80
2022-10-22T00:55:48.535Z,99730.00
2022-10-22T00:58:50.866Z,99722.00
2022-10-22T01:02:02.715Z,99721.80
2022-10-22T01:05:01.293Z,99726.80
2022-10-22T01:08:02.694Z,99722.80
2022-10-22T01:11:24.297Z,99720.80
2022-10-22T01:15:07.548Z,99728.40
2022-10-22T01:18:26.127Z,99744.20
2022-10-22T01:21:56.812Z,99758.60
2022-10-22T01:25:32.697Z,99787.40
2022-10-22T01:29:00.362Z,99779.20
2022-10-22T01:32:02.773Z,99754.20
2022-10-22T01:35:07.683Z,99746.40
2022-10-22T01:37:55.561Z,99762.80
2022-10-22T01:40:52.000Z,99764.40
2022-10-22T01:43:47.590Z,99748.00
2022-10-22T01:46:29.009Z,99740.20
2022-10-22T01:49:35.832Z,99729.40
2022-10-22T01:53:13.428Z,99738.20
2022-10-22T01:56:24.546Z,99740.80
2022-10-22T01:59:44.295Z,99738.80
2022-10-22T02:02:58.074Z,99732.20
2022-10-22T02:05:46.098Z,99723.00
2022-10-22T02:08:22.328Z,99722.60
2022-10-22T02:10:53.456Z,99719.40
2022-10-22T02:14:03.285Z,99715.20
2022-10-22T02:16:47.667Z,99703.80
2022-10-22T02:19:44.327Z,99708.60
2022-10-22T02:22:21.065Z,99720.40
2022-10-22T02:25:17.856Z,99726.40
2022-10-22T02:28:07.985Z,99735.20
2022-10-22T02:30:50.429Z,99735.20
2022-10-22T02:33:28.068Z,99737.40
2022-10-22T02:36:25.120Z,99741.80
2022-10-22T02:39:03.349Z,99744.40
2022-10-22T02:42:01.922Z,99752.40
2022-10-22T02:44:57.265Z,99757.60
2022-10-22T02:47:31.865Z,99751.00
2022-10-22T02:50:01.050Z,99738.20
2022-10-22T02:52:29.190Z,99723.00
2022-10-22T02:55:07.801Z,99717.40
2022-10-22T02:58:03.629Z,99724.80
2022-10-22T03:00:43.608Z,99719.20
2022-10-22T03:03:41.522Z,99722.60
2022-10-22T03:06:30.597Z,99721.60
2022-10-22T03:09:34.620Z,99733.00
2022-10-22T03:12:18.451Z,99726.00
2022-10-22T03:14:49.853Z,99732.40
2022-10-22T03:17:24.867Z,99728.00
2022-10-22T03:20:06.100Z,99730.60
2022-10-22T03:22:39.989Z,99734.80
2022-10-22T03:25:27.108Z,99736.60
2022-10-22T03:28:18.783Z,99732.40
2022-10-22T03:31:19.061Z,99730.80
2022-10-22T03:34:06.681Z,99734.20
2022-10-22T03:37:05.404Z,99739.00
2022-10-22T03:39:49.596Z,99740.60
2022-10-22T03:42:48.587Z,99745.20
2022-10-22T03:45:29.953Z,99740.20
2022-10-22T03:48:30.115Z,99737.80
2022-10-22T03:51:30.051Z,99740.20
2022-10-22T03:54:29.372Z,99741.40
2022-10-22T03:57:15.223Z,99734.40
2022-10-22T04:00:14.868Z,99732.60
2022-10-22T04:03:12.528Z,99740.20
2022-10-22T04:06:13.463Z,99733.40
2022-10-22T04:09:10.368Z,99736.40
2022-10-22T04:11:48.089Z,99729.80
2022-10-22T04:14:43.489Z,99730.40
2022-10-22T04:17:20.436Z,99732.80
2022-10-22T04:19:54.712Z,99724.60
2022-10-22T04:22:50.664Z,99723.40
2022-10-22T04:25:27.518Z,99722.20
2022-10-22T04:28:24.265Z,99722.60
2022-10-22T04:31:00.958Z,99721.00
2022-10-22T04:33:58.086Z,99718.00
2022-10-22T04:36:34.679Z,99713.40
2022-10-22T04:39:31.361Z,99712.00
2022-10-22T04:42:27.439Z,99721.60
2022-10-22T04:45:02.953Z,99735.80
2022-10-22T04:47:39.999Z,99746.00
2022-10-22T04:50:08.762Z,99746.40
2022-10-22T04:52:39.349Z,99752.60
2022-10-22T04:55:07.933Z,99757.80
2022-10-22T04:57:36.144Z,99763.20
2022-10-22T05:00:06.088Z,99764.40
2022-10-22T05:02:34.049Z,99753.00
2022-10-22T05:05:02.052Z,99747.00
2022-10-22T05:07:29.383Z,99741.40
2022-10-22T05:09:56.618Z,99743.60
2022-10-22T05:12:24.147Z,99739.80
2022-10-22T05:14:51.393Z,99744.00
2022-10-22T05:17:18.607Z,99744.60
2022-10-22T05:19:45.934Z,99748.80
2022-10-22T05:22:13.245Z,99761.00
2022-10-22T05:24:40.809Z,99765.20
2022-10-22T05:27:08.067Z,99761.00
2022-10-22T05:29:36.143Z,99762.40
2022-10-22T05:32:03.438Z,99768.20
2022-10-22T05:34:30.758Z,99768.20
2022-10-22T05:36:57.991Z,99774.20
2022-10-22T05:39:25.089Z,99789.80
2022-10-22T05:41:53.647Z,99806.20
2022-10-22T05:44:21.196Z,99810.40
2022-10-22T05:46:48.433Z,99811.80
2022-10-22T05:49:16.009Z,99813.80
2022-10-22T05:51:43.375Z,99822.00
2022-10-22T05:54:20.353Z,99827.20
2022-10-22T05:56:48.068Z,99819.80
2022-10-22T05:59:15.456Z,99821.00
2022-10-22T06:01:43.128Z,99803.80
2022-10-22T06:04:12.993Z,99805.60
2022-10-22T06:06:46.006Z,99811.60
2022-10-22T06:09:42.084Z,99817.20
2022-10-22T06:12:12.314Z,99820.00
2022-10-22T06:14:39.634Z,99824.20
2022-10-22T06:17:08.783Z,99811.40
2022-10-22T06:19:36.417Z,99801.80
2022-10-22T06:22:04.642Z,99792.80
2022-10-22T06:24:32.044Z,99797.60
2022-10-22T06:26:59.608Z,99802.40
2022-10-22T06:29:26.906Z,99795.40
2022-10-22T06:31:54.168Z,99796.00
2022-10-22T06:34:21.794Z,99799.80
2022-10-22T06:36:51.276Z,99799.20
2022-10-22T06:39:18.682Z,99805.20
2022-10-22T06:41:46.597Z,99798.40
2022-10-22T06:44:17.397Z,99798.20
2022-10-22T06:46:44.748Z,99798.20
2022-10-22T06:49:16.770Z,99801.00
2022-10-22T06:51:44.410Z,99810.20
2022-10-22T06:54:11.966Z,99805.60
2022-10-22T06:56:42.310Z,99802.20
2022-10-22T06:59:09.730Z,99794.60
2022-10-22T07:01:38.009Z,99799.60
2022-10-22T07:04:06.544Z,99810.00
2022-10-22T07:06:33.930Z,99810.20
2022-10-22T07:09:01.240Z,99805.80
2022-10-22T07:11:38.763Z,99816.40
2022-10-22T07:14:06.462Z,99823.20
2022-10-22T07:16:33.988Z,99829.60
2022-10-22T07:19:03.040Z,99826.80
2022-10-22T07:21:31.482Z,99822.20
2022-10-22T07:23:59.532Z,99820.20
2022-10-22T07:26:30.504Z,99823.20
2022-10-22T07:29:01.054Z,99831.60
2022-10-22T07:31:28.431Z,99826.80
2022-10-22T07:33:56.087Z,99821.00
2022-10-22T07:36:23.552Z,99825.60
2022-10-22T07:38:57.622Z,99825.60
2022-10-22T07:41:26.596Z,99822.60
2022-10-22T07:43:55.237Z,99823.80
2022-10-22T07:46:23.434Z,99814.20
2022-10-22T07:48:51.090Z,99815.20
2022-10-22T07:51:18.582Z,99816.20
2022-10-22T07:53:45.874Z,99816.60
2022-10-22T07:56:13.656Z,99818.80
2022-10-22T07:58:41.252Z,99818.00
2022-10-22T08:01:08.616Z,99823.00
2022-10-22T08:03:36.336Z,99827.60
2022-10-22T08:06:04.052Z,99838.00
2022-10-22T08:08:31.797Z,99845.80
2022-10-22T08:11:01.699Z,99844.40
2022-10-22T08:13:32.291Z,99842.20
2022-10-22T08:16:00.854Z,99839.20
2022-10-22T08:18:29.055Z,99836.00
2022-10-22T08:20:57.331Z,99837.20
2022-10-22T08:23:28.335Z,99837.60
2022-10-22T08:25:57.606Z,99836.40
2022-10-22T08:28:25.979Z,99836.80
2022-10-22T08:30:53.265Z,99843.00
2022-10-22T08:33:20.552Z,99850.00
2022-10-22T08:35:50.614Z,99861.60
2022-10-22T08:38:19.316Z,99861.80
2022-10-22T08:41:00.825Z,99866.80
2022-10-22T08:44:01.874Z,99879.20
2022-10-22T08:46:54.074Z,99873.00
2022-10-22T08:49:39.755Z,99873.40
2022-10-22T08:52:19.390Z,99866.20
2022-10-22T08:54:59.714Z,99866.00
2022-10-22T08:58:03.092Z,99863.20
2022-10-22T09:01:22.993Z,99855.20
2022-10-22T09:03:58.253Z,99859.20
2022-10-22T09:06:29.921Z,99857.20
2022-10-22T09:08:59.881Z,99864.40
2022-10-22T09:11:35.258Z,99861.00
2022-10-22T09:14:04.823Z,99867.20
2022-10-22T09:17:11.799Z,99873.20
2022-10-22T09:19:56.678Z,99872.00
2022-10-22T09:22:52.417Z,99876.00
2022-10-22T09:25:40.537Z,99876.00
2022-10-22T09:28:10.054Z,99882.40
2022-10-22T09:30:39.613Z,99889.60
2022-10-22T09:33:06.762Z,99893.20
2022-10-22T09:35:43.880Z,99890.00
2022-10-22T09:38:14.641Z,99891.40
2022-10-22T09:40:55.699Z,99886.60
2022-10-22T09:43:23.768Z,99894.20
2022-10-22T09:46:05.578Z,99896.00
2022-10-22T09:48:41.049Z,99892.20
2022-10-22T09:51:36.454Z,99893.60
2022-10-22T09:54:21.171Z,99886.00
2022-10-22T09:57:02.612Z,99886.80
2022-10-22T09:59:38.211Z,99885.40
2022-10-22T10:02:37.992Z,99888.80
2022-10-22T10:05:08.668Z,99892.00
2022-10-22T10:07:36.621Z,99895.40
2022-10-22T10:10:37.459Z,99898.80
2022-10-22T10:13:16.473Z,99911.00
2022-10-22T10:16:00.373Z,99906.00
2022-10-22T10:18:46.105Z,99905.40
2022-10-22T10:21:24.782Z,99904.40
2022-10-22T10:24:14.011Z,99903.00
2022-10-22T10:27:14.808Z,99904.80
2022-10-22T10:29:56.212Z,99912.20
2022-10-22T10:32:42.054Z,99914.80
2022-10-22T10:35:21.646Z,99913.40
2022-10-22T10:38:03.668Z,99905.80
2022-10-22T10:40:49.011Z,99902.00
2022-10-22T10:43:48.435Z,99896.40
2022-10-22T10:47:11.745Z,99898.40
2022-10-22T10:49:38.975Z,99895.20
2022-10-22T10:52:41.173Z,99893.80
2022-10-22T10:55:35.653Z,99887.60
2022-10-22T10:58:35.253Z,99887.40
2022-10-22T11:01:21.037Z,99891.00
2022-10-22T11:04:06.768Z,99891.20
2022-10-22T11:06:38.998Z,99884.40
2022-10-22T11:09:27.027Z,99888.20
2022-10-22T11:12:01.513Z,99880.60
2022-10-22T11:15:25.173Z,99876.20
2022-10-22T11:18:02.824Z,99880.60
2022-10-22T11:21:17.515Z,99879.40
2022-10-22T11:24:10.114Z,99872.60
2022-10-22T11:26:49.854Z,99868.60
2022-10-22T11:29:27.225Z,99864.80
2022-10-22T11:31:57.775Z,99872.40
2022-10-22T11:34:51.032Z,99873.80
2022-10-22T11:37:21.803Z,99876.80
2022-10-22T11:39:59.620Z,99876.20
2022-10-22T11:42:42.964Z,99878.60
2022-10-22T11:45:13.330Z,99878.60
2022-10-22T11:48:14.578Z,99890.80
2022-10-22T11:50:46.749Z,99895.20
2022-10-22T11:53:13.964Z,99898.40
2022-10-22T11:55:51.268Z,99900.20
2022-10-22T11:58:32.970Z,99889.40
2022-10-22T12:01:09.235Z,99886.00
2022-10-22T12:03:49.126Z,99877.60
2022-10-22T12:06:26.509Z,99877.80
2022-10-22T12:09:05.414Z,99879.60
2022-10-22T12:11:40.687Z,99879.80
2022-10-22T12:14:13.729Z,99880.40
2022-10-22T12:17:13.359Z,99875.00
2022-10-22T12:19:49.217Z,99871.20
2022-10-22T12:22:37.134Z,99874.00
2022-10-22T12:25:23.266Z,99869.60
2022-10-22T12:28:00.628Z,99870.40
2022-10-22T12:30:36.890Z,99876.60
2022-10-22T12:33:08.303Z,99874.80
2022-10-22T12:35:45.419Z,99871.80
2022-10-22T12:38:25.179Z,99873.20
2022-10-22T12:40:57.078Z,99877.60
2022-10-22T12:43:29.498Z,99877.20
2022-10-22T12:45:58.913Z,99870.60
2022-10-22T12:48:35.977Z,99874.20
2022-10-22T12:51:07.743Z,99876.00
2022-10-22T12:53:56.702Z,99879.80
2022-10-22T12:56:29.017Z,99883.80
2022-10-22T12:59:04.742Z,99883.40
2022-10-22T13:01:39.650Z,99881.80
2022-10-22T13:04:12.794Z,99879.80
2022-10-22T13:06:46.332Z,99880.80
2022-10-22T13:09:27.548Z,99884.00
2022-10-22T13:12:06.710Z,99884.80
2022-10-22T13:14:38.647Z,99882.00
2022-10-22T13:17:36.700Z,99878.40
2022-10-22T13:20:20.186Z,99881.40
2022-10-22T13:23:03.861Z,99880.80
2022-10-22T13:25:35.525Z,99886.20
2022-10-22T13:28:21.880Z,99890.20
2022-10-22T13:30:59.410Z,99889.40
2022-10-22T13:33:34.480Z,99891.20
2022-10-22T13:36:02.909Z,99893.40
2022-10-22T13:38:30.729Z,99896.00
2022-10-22T13:40:59.155Z,99896.60
2022-10-22T13:43:26.619Z,99897.40
2022-10-22T13:46:01.260Z,99894.00
2022-10-22T13:48:30.320Z,99895.40
2022-10-22T13:50:57.667Z,99899.00
2022-10-22T13:53:27.741Z,99901.40
2022-10-22T13:55:56.059Z,99906.00
2022-10-22T13:58:24.445Z,99899.40
2022-10-22T14:00:59.618Z,99905.80
2022-10-22T14:03:32.966Z,99906.60
2022-10-22T14:06:00.583Z,99907.20
2022-10-22T14:08:28.619Z,99909.80
2022-10-22T14:10:56.141Z,99910.60
2022-10-22T14:13:23.521Z,99910.80
2022-10-22T14:15:52.160Z,99915.20
2022-10-22T14:18:31.164Z,99913.80
2022-10-22T14:21:04.791Z,99914.80
2022-10-22T14:23:34.540Z,99918.80
2022-10-22T14:26:03.739Z,99919.40
2022-10-22T14:28:34.189Z,99927.60
2022-10-22T14:31:10.979Z,99925.60
2022-10-22T14:33:40.059Z,99925.00
2022-10-22T14:36:08.960Z,99929.80
2022-10-22T14:38:36.219Z,99929.00
2022-10-22T14:41:13.194Z,99930.40
2022-10-22T14:43:40.511Z,99935.60
2022-10-22T14:46:12.255Z,99933.40
2022-10-22T14:48:40.380Z,99935.20
2022-10-22T14:51:11.447Z,99939.40
2022-10-22T14:53:38.939Z,99935.40
2022-10-22T14:56:06.459Z,99936.20
2022-10-22T14:58:33.717Z,99941.00
2022-10-22T15:01:04.443Z,99939.00
2022-10-22T15:03:31.899Z,99940.40
2022-10-22T15:06:00.119Z,99946.40
2022-10-22T15:08:27.539Z,99944.80
2022-10-22T15:11:00.359Z,99942.00
2022-10-22T15:13:29.319Z,99942.40
2022-10-22T15:15:58.259Z,99941.80
2022-10-22T15:18:26.420Z,99946.20
2022-10-22T15:21:03.599Z,99951.20
2022-10-22T15:23:31.285Z,99953.20
2022-10-22T15:25:59.162Z,99954.40
2022-10-22T15:28:26.279Z,99959.60
2022-10-22T15:31:01.162Z,99960.20
2022-10-22T15:33:29.687Z,99962.80
2022-10-22T15:35:58.303Z,99969.20
2022-10-22T15:41:06.119Z,99975.20
2022-10-22T15:43:34.602Z,99975.80
2022-10-22T15:46:18.708Z,99979.00
2022-10-22T15:48:46.420Z,99981.40
2022-10-22T15:51:18.982Z,99983.80
2022-10-22T15:53:55.458Z,99985.60
2022-10-22T15:56:24.519Z,99986.80
2022-10-22T15:59:02.311Z,99984.60
2022-10-22T16:01:31.857Z,99990.80
2022-10-22T16:04:02.178Z,99998.20
2022-10-22T16:06:40.977Z,99995.80
2022-10-22T16:09:12.476Z,99998.60
2022-10-22T16:11:41.395Z,99997.60
2022-10-22T16:35:16.166Z,100023.60
2022-10-22T16:37:44.225Z,100024.00
2022-10-22T16:40:12.469Z,100027.20
2022-10-22T19:03:17.970Z,100148.60
2022-10-22T19:05:49.093Z,100150.20
2022-10-22T19:08:16.795Z,100150.80
2022-10-22T19:10:46.432Z,100154.20
2022-10-22T19:13:16.351Z,100164.60
2022-10-22T19:15:44.133Z,100166.60
2022-10-22T19:18:13.151Z,100167.20
2022-10-22T19:20:40.971Z,100167.60
2022-10-22T19:23:08.132Z,100170.60
2022-10-22T19:25:36.392Z,100174.60
2022-10-22T19:28:03.890Z,100177.80
2022-10-22T19:30:30.970Z,100181.80
2022-10-22T19:32:58.100Z,100188.80
2022-10-22T19:35:25.232Z,100186.20
2022-10-22T19:37:52.511Z,100188.20
2022-10-22T19:40:19.911Z,100193.20
2022-10-22T19:42:49.991Z,100192.00
2022-10-22T19:45:17.911Z,100190.40
2022-10-22T19:47:45.132Z,100187.60
2022-10-22T19:50:12.353Z,100193.60
2022-10-22T19:52:39.726Z,100195.20
2022-10-22T19:55:09.651Z,100195.60
2022-10-22T19:57:38.393Z,100196.60
2022-10-22T20:00:07.110Z,100200.00
2022-10-22T20:02:36.351Z,100206.40
2022-10-22T20:05:04.613Z,100215.00
2022-10-22T20:07:32.595Z,100213.40
2022-10-22T20:09:59.792Z,100215.60
2022-10-22T20:12:27.051Z,100210.00
2022-10-22T20:14:54.394Z,100217.00
2022-10-22T20:17:21.610Z,100213.60
2022-10-22T20:19:48.792Z,100220.00
2022-10-22T20:22:17.988Z,100218.80
2022-10-22T20:24:46.080Z,100216.00
2022-10-22T20:27:13.690Z,100215.80
2022-10-22T20:29:40.943Z,100218.20
2022-10-22T20:32:08.908Z,100224.00
2022-10-22T20:34:37.173Z,100221.60
2022-10-22T20:37:04.394Z,100221.20
2022-10-22T20:39:31.571Z,100225.60
2022-10-22T20:41:58.858Z,100227.80
2022-10-22T20:44:26.032Z,100227.40
2022-10-22T20:46:53.293Z,100229.20
2022-10-22T20:49:21.431Z,100226.40
2022-10-22T20:51:48.672Z,100229.40
2022-10-22T20:54:16.691Z,100232.80
2022-10-22T20:56:45.034Z,100231.60
2022-10-22T20:59:12.430Z,100235.80
2022-10-22T21:01:48.271Z,100238.20
2022-10-22T21:04:17.313Z,100237.60
2022-10-22T21:06:44.551Z,100240.80
2022-10-22T21:09:14.469Z,100239.60
2022-10-22T21:11:43.044Z,100244.60
2022-10-22T21:14:13.618Z,100242.60
2022-10-22T21:16:45.224Z,100243.00
2022-10-22T21:19:12.774Z,100249.40
2022-10-22T21:21:40.296Z,100254.60
2022-10-22T21:24:08.373Z,100251.80
2022-10-22T21:26:43.583Z,100249.00
2022-10-22T21:29:13.192Z,100252.60
2022-10-22T21:31:40.678Z,100253.60
2022-10-22T21:34:08.010Z,100253.80
2022-10-22T21:36:35.176Z,100255.60
2022-10-22T21:39:02.631Z,100259.00
2022-10-22T21:41:30.364Z,100264.60
2022-10-22T21:43:57.913Z,100263.80
2022-10-22T21:46:28.030Z,100267.00
2022-10-22T21:48:58.933Z,100264.60
2022-10-22T21:51:26.283Z,100266.20
2022-10-22T21:53:54.560Z,100266.80
2022-10-22T21:56:34.313Z,100264.80
2022-10-22T21:59:08.901Z,100263.20
2022-10-22T22:01:36.482Z,100263.40
2022-10-22T22:04:09.892Z,100266.60
2022-10-22T22:06:44.711Z,100262.20
2022-10-22T22:09:12.400Z,100264.00
2022-10-22T22:11:48.600Z,100267.00
2022-10-22T22:14:24.810Z,100264.00
2022-10-22T22:16:52.185Z,100267.20
2022-10-22T22:19:47.609Z,100272.00
2022-10-22T22:22:15.053Z,100273.20
2022-10-22T22:24:51.194Z,100276.40
2022-10-22T22:27:28.463Z,100274.80
2022-10-22T22:30:06.095Z,100277.00
2022-10-22T22:32:33.623Z,100281.00
2022-10-22T22:35:01.332Z,100281.00
2022-10-22T22:37:39.939Z,100277.60
2022-10-22T22:40:08.999Z,100284.00
2022-10-22T22:42:39.941Z,100284.00
2022-10-22T22:45:08.106Z,100288.60
2022-10-22T22:47:35.627Z,100289.40
2022-10-22T22:50:12.750Z,100291.40
2022-10-22T22:53:09.526Z,100289.00
2022-10-22T22:55:45.837Z,100292.40
2022-10-22T22:58:44.932Z,100286.20
2022-10-22T23:01:29.370Z,100285.20
2022-10-22T23:04:01.140Z,100284.80
2022-10-22T23:06:38.263Z,100285.20
2022-10-22T23:09:10.291Z,100289.60
2022-10-22T23:11:48.478Z,100288.80
2022-10-22T23:14:21.998Z,100291.20
2022-10-22T23:16:54.330Z,100285.60
2022-10-22T23:19:49.540Z,100284.60
2022-10-22T23:22:17.318Z,100286.80
2022-10-22T23:25:10.840Z,100284.80
2022-10-22T23:27:46.341Z,100289.40
2022-10-22T23:30:14.061Z,100290.00
2022-10-22T23:32:42.066Z,100293.80
2022-10-22T23:35:10.300Z,100291.60
2022-10-22T23:37:52.486Z,100286.00
2022-10-22T23:41:04.113Z,100289.00
2022-10-22T23:43:45.534Z,100290.00
2022-10-22T23:46:15.494Z,100290.80
2022-10-22T23:48:45.883Z,100298.60
2022-10-22T23:51:17.829Z,100298.20
2022-10-22T23:53:48.830Z,100298.40
2022-10-22T23:56:49.461Z,100300.40
2022-10-22T23:59:38.591Z,100307.00
